createdAt,value
2023-01-27T00:01:17.231Z,4.00
2023-01-27T00:03:45.522Z,4.10
2023-01-27T00:06:13.789Z,3.90
2023-01-27T00:08:42.006Z,4.00
2023-01-27T00:11:27.561Z,4.00
2023-01-27T00:13:56.501Z,3.90
2023-01-27T00:16:26.104Z,3.90
2023-01-27T00:18:54.289Z,3.90
2023-01-27T00:21:39.861Z,3.90
2023-01-27T00:24:27.980Z,3.90
2023-01-27T00:26:56.153Z,3.90
2023-01-27T00:29:24.425Z,3.90
2023-01-27T00:32:12.102Z,3.90
2023-01-27T00:34:41.608Z,3.90
2023-01-27T00:37:09.918Z,3.80
2023-01-27T00:39:38.200Z,3.80
2023-01-27T00:42:06.842Z,3.80
2023-01-27T00:44:37.053Z,3.80
2023-01-27T00:47:07.017Z,3.70
2023-01-27T00:49:35.358Z,3.60
2023-01-27T00:52:03.539Z,3.60
2023-01-27T00:54:31.833Z,3.50
2023-01-27T00:57:00.132Z,3.50
2023-01-27T00:59:28.354Z,3.50
2023-01-27T01:01:56.602Z,3.50
2023-01-27T01:04:26.278Z,3.50
2023-01-27T01:06:54.517Z,3.40
2023-01-27T01:09:22.737Z,3.40
2023-01-27T01:11:50.965Z,3.40
2023-01-27T01:14:19.259Z,3.30
2023-01-27T01:16:47.662Z,3.40
2023-01-27T01:19:15.933Z,3.30
2023-01-27T01:21:45.887Z,3.30
2023-01-27T01:24:14.459Z,3.30
2023-01-27T01:26:42.680Z,3.20
2023-01-27T01:29:11.298Z,3.20
2023-01-27T01:31:39.572Z,3.10
2023-01-27T01:34:08.017Z,3.10
2023-01-27T01:36:36.484Z,3.20
2023-01-27T01:39:08.007Z,3.20
2023-01-27T01:41:36.365Z,3.20
2023-01-27T01:44:22.763Z,3.20
2023-01-27T01:46:51.208Z,3.20
2023-01-27T01:49:22.925Z,3.20
2023-01-27T01:51:55.885Z,3.20
2023-01-27T01:54:28.706Z,3.10
2023-01-27T01:57:06.303Z,3.10
2023-01-27T01:59:39.313Z,3.10
2023-01-27T02:02:12.016Z,3.10
2023-01-27T02:04:46.291Z,3.10
2023-01-27T02:07:21.093Z,3.10
2023-01-27T02:09:55.827Z,3.20
2023-01-27T02:12:24.351Z,3.20
2023-01-27T02:14:52.549Z,3.20
2023-01-27T02:17:23.790Z,3.20
2023-01-27T02:20:00.251Z,3.00
2023-01-27T02:22:36.555Z,3.10
2023-01-27T02:25:14.143Z,3.10
2023-01-27T02:27:44.573Z,3.10
2023-01-27T02:30:13.181Z,3.20
2023-01-27T02:32:41.822Z,3.10
2023-01-27T02:35:12.401Z,3.10
2023-01-27T02:37:41.550Z,3.10
2023-01-27T02:40:11.943Z,3.10
2023-01-27T02:42:40.226Z,3.20
2023-01-27T02:45:11.468Z,3.20
2023-01-27T02:47:39.960Z,3.10
2023-01-27T02:50:09.339Z,3.10
2023-01-27T02:52:37.530Z,3.20
2023-01-27T02:55:06.991Z,3.20
2023-01-27T02:57:35.383Z,3.20
2023-01-27T03:00:34.846Z,3.30
2023-01-27T03:03:03.239Z,3.20
2023-01-27T03:05:31.413Z,3.20
2023-01-27T03:07:59.667Z,3.20
2023-01-27T03:10:28.016Z,3.20
2023-01-27T03:12:56.295Z,3.20
2023-01-27T03:15:42.473Z,3.20
2023-01-27T03:18:13.775Z,3.20
2023-01-27T03:20:43.127Z,3.30
2023-01-27T03:23:12.269Z,3.20
2023-01-27T03:25:43.316Z,3.30
2023-01-27T03:28:12.228Z,3.30
2023-01-27T03:31:19.951Z,3.20
2023-01-27T03:33:55.813Z,3.20
2023-01-27T03:36:47.091Z,3.30
2023-01-27T03:39:32.885Z,3.30
2023-01-27T03:42:18.851Z,3.20
2023-01-27T03:45:05.403Z,3.20
2023-01-27T03:47:33.767Z,3.20
2023-01-27T03:50:03.355Z,3.20
2023-01-27T03:52:31.568Z,3.20
2023-01-27T03:54:59.779Z,3.20
2023-01-27T03:57:28.061Z,3.30
2023-01-27T03:59:56.386Z,3.20
2023-01-27T04:02:41.878Z,3.20
2023-01-27T04:05:29.122Z,3.20
2023-01-27T04:07:57.441Z,3.20
2023-01-27T04:10:25.746Z,3.30
2023-01-27T04:12:53.086Z,3.20
2023-01-27T04:15:21.675Z,3.20
2023-01-27T04:17:49.889Z,3.30
2023-01-27T04:20:19.976Z,3.30
2023-01-27T04:22:48.185Z,3.30
2023-01-27T04:25:16.880Z,3.30
2023-01-27T04:27:45.297Z,3.40
2023-01-27T04:30:14.345Z,3.40
2023-01-27T04:32:42.519Z,3.40
2023-01-27T04:35:11.379Z,3.40
2023-01-27T04:37:41.144Z,3.40
2023-01-27T04:40:11.117Z,3.40
2023-01-27T04:42:39.319Z,3.40
2023-01-27T04:45:08.772Z,3.50
2023-01-27T04:47:36.984Z,3.50
2023-01-27T04:50:05.728Z,3.50
2023-01-27T04:52:33.992Z,3.50
2023-01-27T04:55:03.745Z,3.50
2023-01-27T04:57:31.911Z,3.50
2023-01-27T05:00:00.190Z,3.50
2023-01-27T05:02:30.095Z,3.50
2023-01-27T05:04:58.347Z,3.50
2023-01-27T05:07:26.625Z,3.50
2023-01-27T05:09:54.779Z,3.60
2023-01-27T05:12:24.343Z,3.50
2023-01-27T05:14:52.539Z,3.60
2023-01-27T05:17:20.754Z,3.60
2023-01-27T05:19:48.971Z,3.60
2023-01-27T05:22:17.202Z,3.60
2023-01-27T05:24:45.341Z,3.60
2023-01-27T05:27:13.886Z,3.70
2023-01-27T05:29:43.430Z,3.60
2023-01-27T05:32:11.880Z,3.70
2023-01-27T05:34:40.161Z,3.70
2023-01-27T05:37:08.515Z,3.60
2023-01-27T05:39:36.689Z,3.70
2023-01-27T05:42:05.108Z,3.70
2023-01-27T05:44:33.446Z,3.70
2023-01-27T05:47:02.974Z,3.80
2023-01-27T05:49:31.146Z,3.80
2023-01-27T05:51:59.384Z,3.70
2023-01-27T05:54:27.730Z,4.00
2023-01-27T05:56:56.477Z,4.00
2023-01-27T05:59:24.914Z,3.90
2023-01-27T06:01:53.419Z,3.80
2023-01-27T06:04:23.163Z,3.80
2023-01-27T06:06:51.548Z,3.80
2023-01-27T06:09:19.771Z,3.80
2023-01-27T06:11:48.363Z,3.70
2023-01-27T06:14:16.767Z,3.80
2023-01-27T06:16:47.281Z,3.80
2023-01-27T06:19:15.777Z,3.80
2023-01-27T06:21:51.519Z,3.90
2023-01-27T06:24:25.386Z,3.80
2023-01-27T06:26:53.627Z,3.80
2023-01-27T06:29:22.151Z,3.80
2023-01-27T06:31:50.372Z,3.80
2023-01-27T06:34:18.630Z,3.80
2023-01-27T06:36:48.666Z,3.80
2023-01-27T06:39:17.234Z,3.70
2023-01-27T06:41:45.498Z,3.70
2023-01-27T06:44:13.818Z,3.70
2023-01-27T06:46:42.627Z,3.80
2023-01-27T06:49:10.990Z,3.70
2023-01-27T06:51:39.226Z,3.70
2023-01-27T06:54:09.133Z,3.70
2023-01-27T06:56:37.338Z,3.70
2023-01-27T06:59:06.092Z,3.70
2023-01-27T07:01:35.251Z,3.60
2023-01-27T07:04:03.590Z,3.70
2023-01-27T07:06:31.847Z,3.70
2023-01-27T07:09:00.091Z,3.70
2023-01-27T07:11:29.686Z,3.70
2023-01-27T07:13:57.888Z,3.70
2023-01-27T07:16:26.213Z,3.70
2023-01-27T07:18:54.549Z,3.80
2023-01-27T07:21:22.754Z,3.70
2023-01-27T07:23:51.137Z,3.80
2023-01-27T07:26:25.053Z,3.80
2023-01-27T07:28:56.370Z,3.80
2023-01-27T07:31:24.854Z,3.80
2023-01-27T07:33:53.893Z,3.80
2023-01-27T07:36:22.456Z,3.80
2023-01-27T07:38:51.944Z,3.80
2023-01-27T07:41:20.186Z,3.90
2023-01-27T07:43:51.368Z,3.90
2023-01-27T07:46:23.014Z,3.90
2023-01-27T07:48:53.094Z,3.90
2023-01-27T07:51:21.381Z,3.90
2023-01-27T07:53:49.622Z,3.90
2023-01-27T07:56:17.925Z,4.00
2023-01-27T07:58:46.343Z,3.90
2023-01-27T08:01:14.846Z,4.00
2023-01-27T08:03:44.472Z,4.00
2023-01-27T08:06:13.910Z,4.00
2023-01-27T08:08:42.103Z,4.00
2023-01-27T08:11:13.450Z,4.00
2023-01-27T08:13:41.729Z,4.00
2023-01-27T08:16:14.058Z,4.10
2023-01-27T08:18:44.237Z,4.10
2023-01-27T08:21:13.887Z,4.10
2023-01-27T08:23:42.727Z,4.10
2023-01-27T08:26:11.101Z,4.20
2023-01-27T08:28:40.590Z,4.20
2023-01-27T08:31:10.844Z,4.30
2023-01-27T08:33:39.845Z,4.30
2023-01-27T08:36:12.526Z,4.30
2023-01-27T08:38:41.124Z,4.30
2023-01-27T08:41:11.939Z,4.30
2023-01-27T08:43:40.361Z,4.30
2023-01-27T08:46:09.554Z,4.30
2023-01-27T08:48:38.580Z,4.30
2023-01-27T08:51:10.023Z,4.30
2023-01-27T08:53:38.246Z,4.30
2023-01-27T08:56:09.332Z,4.30
2023-01-27T08:58:37.965Z,4.40
2023-01-27T09:01:07.914Z,4.40
2023-01-27T09:03:37.667Z,4.50
2023-01-27T09:06:08.674Z,4.40
2023-01-27T09:08:38.416Z,4.40
2023-01-27T09:11:11.070Z,4.40
2023-01-27T09:13:39.288Z,4.40
2023-01-27T09:16:07.914Z,4.40
2023-01-27T09:18:36.896Z,4.40
2023-01-27T09:21:06.467Z,4.40
2023-01-27T09:23:35.421Z,4.40
2023-01-27T09:26:05.382Z,4.30
2023-01-27T09:28:33.568Z,4.30
2023-01-27T09:31:01.878Z,4.30
2023-01-27T09:33:30.285Z,4.40
2023-01-27T09:36:02.602Z,4.40
2023-01-27T09:38:35.703Z,4.40
2023-01-27T09:41:23.766Z,4.40
2023-01-27T09:44:10.310Z,4.40
2023-01-27T09:46:50.906Z,4.50
2023-01-27T09:49:38.327Z,4.40
2023-01-27T09:52:22.602Z,4.40
2023-01-27T09:55:02.997Z,4.50
2023-01-27T09:57:43.429Z,4.50
2023-01-27T10:00:27.215Z,4.50
2023-01-27T10:03:30.238Z,4.50
2023-01-27T10:06:26.617Z,4.50
2023-01-27T10:09:11.540Z,4.50
2023-01-27T10:11:52.464Z,4.50
2023-01-27T10:14:31.444Z,4.50
2023-01-27T10:17:11.923Z,4.50
2023-01-27T10:19:55.941Z,4.50
2023-01-27T10:22:31.471Z,4.50
2023-01-27T10:25:13.804Z,4.50
2023-01-27T10:27:48.128Z,4.50
2023-01-27T10:30:22.388Z,4.50
2023-01-27T10:33:00.542Z,4.50
2023-01-27T10:35:34.958Z,4.50
2023-01-27T10:38:13.867Z,4.50
2023-01-27T10:40:53.515Z,4.50
2023-01-27T10:43:32.890Z,4.60
2023-01-27T10:46:12.865Z,4.60
2023-01-27T10:48:47.268Z,4.60
2023-01-27T10:51:20.674Z,4.60
2023-01-27T10:53:57.499Z,4.50
2023-01-27T10:56:35.781Z,4.50
2023-01-27T10:59:16.420Z,4.50
2023-01-27T11:01:50.197Z,4.50
2023-01-27T11:04:27.108Z,4.60
2023-01-27T11:06:57.100Z,4.50
2023-01-27T11:09:30.228Z,4.60
2023-01-27T11:12:02.800Z,4.60
2023-01-27T11:14:34.279Z,4.70
2023-01-27T11:17:15.580Z,4.70
2023-01-27T11:19:56.125Z,4.70
2023-01-27T11:22:28.364Z,4.70
2023-01-27T11:25:05.709Z,4.70
2023-01-27T11:27:57.903Z,4.70
2023-01-27T11:30:34.628Z,4.70
2023-01-27T11:33:12.381Z,4.70
2023-01-27T11:35:40.613Z,4.70
2023-01-27T11:38:16.022Z,4.80
2023-01-27T11:40:46.749Z,4.90
2023-01-27T11:43:18.633Z,5.00
2023-01-27T11:45:47.420Z,5.00
2023-01-27T11:48:20.653Z,5.00
2023-01-27T11:50:50.806Z,5.10
2023-01-27T11:53:25.144Z,5.10
2023-01-27T11:55:58.454Z,5.10
2023-01-27T11:58:30.377Z,5.20
2023-01-27T12:01:03.159Z,5.20
2023-01-27T12:03:47.353Z,5.10
2023-01-27T12:06:19.487Z,5.10
2023-01-27T12:08:49.686Z,5.10
2023-01-27T12:11:23.848Z,5.20
2023-01-27T12:13:55.028Z,5.20
2023-01-27T12:16:27.032Z,5.10
2023-01-27T12:19:02.699Z,5.10
2023-01-27T12:21:41.742Z,5.20
2023-01-27T12:24:23.751Z,5.20
2023-01-27T12:26:54.423Z,5.20
2023-01-27T12:29:27.433Z,5.20
2023-01-27T12:31:58.661Z,5.20
2023-01-27T12:34:32.612Z,5.30
2023-01-27T12:37:01.602Z,5.20
2023-01-27T12:39:44.597Z,5.20
2023-01-27T12:42:36.213Z,5.20
2023-01-27T12:45:21.395Z,5.10
2023-01-27T12:48:02.147Z,5.10
2023-01-27T12:50:33.232Z,5.00
2023-01-27T12:53:13.922Z,4.90
2023-01-27T12:55:45.014Z,4.90
2023-01-27T12:58:36.293Z,4.80
2023-01-27T13:01:09.322Z,4.80
2023-01-27T13:03:42.578Z,4.80
2023-01-27T13:06:17.307Z,4.90
2023-01-27T13:08:46.270Z,4.80
2023-01-27T13:11:14.718Z,4.90
2023-01-27T13:13:51.675Z,4.60
2023-01-27T13:16:27.322Z,4.70
2023-01-27T13:18:57.842Z,4.70
2023-01-27T13:21:33.047Z,4.70
2023-01-27T13:24:03.301Z,4.80
2023-01-27T13:26:37.283Z,4.70
2023-01-27T13:29:15.464Z,4.70
2023-01-27T13:31:50.782Z,4.70
2023-01-27T13:34:27.279Z,4.70
2023-01-27T13:37:02.572Z,4.70
2023-01-27T13:39:46.968Z,4.70
2023-01-27T13:42:22.329Z,4.80
2023-01-27T13:44:55.988Z,4.80
2023-01-27T13:47:27.401Z,4.80
2023-01-27T13:49:59.576Z,4.80
2023-01-27T13:52:29.962Z,4.80
2023-01-27T13:54:59.332Z,4.80
2023-01-27T13:57:55.560Z,4.80
2023-01-27T14:00:32.001Z,4.80
2023-01-27T14:03:36.471Z,4.90
2023-01-27T14:06:17.095Z,4.90
2023-01-27T14:08:59.767Z,4.90
2023-01-27T14:11:35.474Z,4.90
2023-01-27T14:14:24.659Z,4.90
2023-01-27T14:17:26.394Z,4.90
2023-01-27T14:20:15.291Z,4.90
2023-01-27T14:22:52.571Z,4.90
2023-01-27T14:25:29.224Z,4.90
2023-01-27T14:28:02.414Z,5.00
2023-01-27T14:30:37.095Z,5.00
2023-01-27T14:33:13.079Z,5.10
2023-01-27T14:35:46.094Z,5.10
2023-01-27T14:38:20.930Z,5.00
2023-01-27T14:41:03.753Z,5.00
2023-01-27T14:43:39.966Z,5.00
2023-01-27T14:46:16.429Z,5.00
2023-01-27T14:48:57.828Z,5.00
2023-01-27T14:51:36.177Z,5.00
2023-01-27T14:54:24.827Z,4.90
2023-01-27T14:57:09.510Z,5.00
2023-01-27T14:59:48.303Z,4.90
2023-01-27T15:02:32.042Z,4.90
2023-01-27T15:05:10.267Z,4.80
2023-01-27T15:07:47.898Z,4.80
2023-01-27T15:10:23.743Z,4.80
2023-01-27T15:13:07.601Z,4.80
2023-01-27T15:16:00.937Z,4.80
2023-01-27T15:18:59.768Z,4.70
2023-01-27T15:21:51.184Z,4.70
2023-01-27T15:24:55.048Z,4.80
2023-01-27T15:27:23.661Z,4.80
2023-01-27T15:29:53.379Z,4.70
2023-01-27T15:32:29.992Z,4.80
2023-01-27T15:35:30.123Z,4.70
2023-01-27T15:38:01.575Z,4.70
2023-01-27T15:40:30.059Z,4.70
2023-01-27T15:43:06.196Z,4.70
2023-01-27T15:45:37.518Z,4.80
2023-01-27T15:48:11.482Z,4.70
2023-01-27T15:50:46.288Z,4.70
2023-01-27T15:53:17.059Z,4.70
2023-01-27T15:55:50.656Z,4.60
2023-01-27T15:58:27.608Z,4.60
2023-01-27T16:00:59.334Z,4.60
2023-01-27T16:03:30.895Z,4.60
2023-01-27T16:06:03.797Z,4.60
2023-01-27T16:08:39.017Z,4.60
2023-01-27T16:11:42.708Z,4.60
2023-01-27T16:14:38.290Z,4.50
2023-01-27T16:17:22.579Z,4.50
2023-01-27T16:20:05.991Z,4.60
2023-01-27T16:22:39.913Z,4.50
2023-01-27T16:25:22.837Z,4.50
2023-01-27T16:27:58.189Z,4.50
2023-01-27T16:30:29.421Z,4.50
2023-01-27T16:33:06.515Z,4.50
2023-01-27T16:35:43.847Z,4.40
2023-01-27T16:38:22.016Z,4.40
2023-01-27T16:40:54.982Z,4.40
2023-01-27T16:43:26.716Z,4.30
2023-01-27T16:45:56.989Z,4.40
2023-01-27T16:48:31.230Z,4.30
2023-01-27T16:51:14.398Z,4.30
2023-01-27T16:53:47.822Z,4.40
2023-01-27T16:56:24.276Z,4.40
2023-01-27T16:58:55.491Z,4.30
2023-01-27T17:01:28.186Z,4.30
2023-01-27T17:04:07.587Z,4.30
2023-01-27T17:06:39.570Z,4.20
2023-01-27T17:09:21.554Z,4.20
2023-01-27T17:11:50.218Z,4.20
2023-01-27T17:14:30.426Z,4.20
2023-01-27T17:17:01.076Z,4.20
2023-01-27T17:19:33.391Z,4.20
2023-01-27T17:22:03.791Z,4.10
2023-01-27T17:24:36.226Z,4.20
2023-01-27T17:27:07.116Z,4.10
2023-01-27T17:29:38.454Z,4.10
2023-01-27T17:32:21.511Z,4.00
2023-01-27T17:34:53.491Z,4.00
2023-01-27T17:37:23.578Z,4.00
2023-01-27T17:39:55.322Z,4.00
2023-01-27T17:42:27.099Z,3.90
2023-01-27T17:44:55.441Z,3.90
2023-01-27T17:47:24.757Z,3.90
2023-01-27T17:49:54.421Z,3.90
2023-01-27T17:52:27.600Z,3.90
2023-01-27T17:54:56.350Z,3.90
2023-01-27T17:57:32.378Z,3.90
2023-01-27T18:00:05.920Z,3.90
2023-01-27T18:02:52.083Z,3.90
2023-01-27T18:09:42.770Z,4.00
2023-01-27T18:12:28.756Z,3.90
2023-01-27T18:14:57.129Z,3.90
2023-01-27T18:17:27.890Z,3.90
2023-01-27T18:19:58.093Z,4.00
2023-01-27T18:22:27.792Z,3.90
2023-01-27T18:24:58.225Z,3.90
2023-01-27T18:27:32.408Z,3.90
2023-01-27T18:30:07.427Z,3.80
2023-01-27T18:32:40.268Z,3.90
2023-01-27T18:35:25.533Z,3.80
2023-01-27T18:37:58.431Z,3.90
2023-01-27T18:40:30.142Z,3.90
2023-01-27T18:42:59.197Z,3.80
2023-01-27T18:45:28.635Z,3.80
2023-01-27T18:47:57.532Z,3.80
2023-01-27T18:50:27.308Z,3.90
2023-01-27T18:52:57.020Z,3.90
2023-01-27T18:55:26.949Z,4.00
2023-01-27T18:57:56.789Z,3.90
2023-01-27T19:00:27.377Z,3.90
2023-01-27T19:02:59.199Z,3.90
2023-01-27T19:05:29.940Z,3.90
2023-01-27T19:08:00.302Z,3.80
2023-01-27T19:10:33.554Z,3.80
2023-01-27T19:13:06.635Z,3.80
2023-01-27T19:15:37.319Z,3.80
2023-01-27T19:18:10.994Z,3.80
2023-01-27T19:20:40.068Z,3.80
2023-01-27T19:23:14.887Z,3.80
2023-01-27T19:25:43.797Z,3.80
2023-01-27T19:28:18.063Z,3.90
2023-01-27T19:30:46.966Z,3.80
2023-01-27T19:33:19.509Z,3.80
2023-01-27T19:35:52.338Z,3.80
2023-01-27T19:38:23.667Z,3.90
2023-01-27T19:40:52.039Z,3.80
2023-01-27T19:43:20.348Z,3.80
2023-01-27T19:45:50.802Z,3.80
2023-01-27T19:48:20.721Z,3.80
2023-01-27T19:50:50.068Z,3.80
2023-01-27T19:53:19.882Z,3.80
2023-01-27T19:55:49.861Z,3.90
2023-01-27T19:58:22.760Z,3.80
2023-01-27T20:00:51.182Z,3.80
2023-01-27T20:03:19.427Z,3.90
2023-01-27T20:05:48.654Z,3.90
2023-01-27T20:08:18.815Z,3.90
2023-01-27T20:10:47.796Z,3.80
2023-01-27T20:13:19.156Z,3.90
2023-01-27T20:15:47.974Z,3.80
2023-01-27T20:18:18.569Z,3.70
2023-01-27T20:20:47.192Z,3.70
2023-01-27T20:23:16.020Z,3.70
2023-01-27T20:25:44.694Z,3.70
2023-01-27T20:28:13.870Z,3.60
2023-01-27T20:30:44.057Z,3.60
2023-01-27T20:33:14.693Z,3.70
2023-01-27T20:35:43.070Z,3.70
2023-01-27T20:38:11.316Z,3.70
2023-01-27T20:40:39.548Z,3.60
2023-01-27T20:43:07.874Z,3.60
2023-01-27T20:45:37.253Z,3.60
2023-01-27T20:48:07.116Z,3.60
2023-01-27T20:50:35.493Z,3.60
2023-01-27T20:53:04.690Z,3.60
2023-01-27T20:55:33.223Z,3.50
2023-01-27T20:58:02.225Z,3.50
2023-01-27T21:00:30.579Z,3.60
2023-01-27T21:02:58.903Z,3.50
2023-01-27T21:05:28.557Z,3.60
2023-01-27T21:07:56.810Z,3.50
2023-01-27T21:10:25.045Z,3.50
2023-01-27T21:12:53.291Z,3.50
2023-01-27T21:15:21.596Z,3.50
2023-01-27T21:17:52.045Z,3.70
2023-01-27T21:20:20.329Z,3.70
2023-01-27T21:22:49.954Z,3.50
2023-01-27T21:25:18.552Z,3.50
2023-01-27T21:27:48.092Z,3.50
2023-01-27T21:30:16.622Z,3.30
2023-01-27T21:32:44.923Z,3.20
2023-01-27T21:35:13.465Z,3.20
2023-01-27T21:37:42.735Z,3.20
2023-01-27T21:40:13.760Z,3.10
2023-01-27T21:42:59.140Z,3.20
2023-01-27T21:45:28.621Z,3.10
2023-01-27T21:47:56.909Z,3.00
2023-01-27T21:50:25.236Z,3.10
2023-01-27T21:52:54.075Z,3.00
2023-01-27T21:55:25.625Z,3.00
2023-01-27T21:57:55.233Z,3.00
2023-01-27T22:00:26.730Z,3.00
2023-01-27T22:02:56.060Z,3.10
2023-01-27T22:05:24.365Z,3.00
2023-01-27T22:07:53.702Z,3.00
2023-01-27T22:10:25.892Z,3.00
2023-01-27T22:12:58.549Z,2.90
2023-01-27T22:15:28.843Z,2.90
2023-01-27T22:17:57.253Z,2.90
2023-01-27T22:20:25.701Z,2.90
2023-01-27T22:22:53.886Z,2.80
2023-01-27T22:25:22.640Z,2.80
2023-01-27T22:27:54.835Z,2.80
2023-01-27T22:30:23.502Z,2.90
2023-01-27T22:32:51.761Z,2.80
2023-01-27T22:35:20.802Z,2.80
2023-01-27T22:37:49.741Z,2.80
2023-01-27T22:40:18.470Z,2.80
2023-01-27T22:42:48.620Z,2.80
2023-01-27T22:45:18.827Z,2.80
2023-01-27T22:47:47.315Z,2.80
2023-01-27T22:50:15.580Z,2.70
2023-01-27T22:52:43.958Z,2.70
2023-01-27T22:55:13.818Z,2.70
2023-01-27T22:57:42.442Z,2.70
2023-01-27T23:00:11.908Z,2.70
2023-01-27T23:02:41.905Z,2.70
2023-01-27T23:05:11.145Z,2.80
2023-01-27T23:07:39.507Z,2.80
2023-01-27T23:10:08.773Z,2.80
2023-01-27T23:12:37.123Z,2.70
2023-01-27T23:15:06.448Z,2.60
2023-01-27T23:17:35.076Z,2.60
2023-01-27T23:20:05.330Z,2.60
2023-01-27T23:22:33.856Z,2.60
2023-01-27T23:25:02.157Z,2.60
2023-01-27T23:27:30.349Z,2.50
2023-01-27T23:29:58.726Z,2.70
2023-01-27T23:32:27.068Z,2.70
2023-01-27T23:34:55.414Z,2.60
2023-01-27T23:37:25.211Z,2.70
2023-01-27T23:39:53.709Z,2.60
2023-01-27T23:42:21.944Z,2.60
2023-01-27T23:44:50.288Z,2.50
2023-01-27T23:47:18.738Z,2.50
2023-01-27T23:49:47.676Z,2.60
2023-01-27T23:52:16.260Z,2.50
2023-01-27T23:54:46.171Z,2.50
2023-01-27T23:57:14.472Z,2.50
2023-01-27T23:59:42.841Z,2.50
